Time;durP1;ratioP1;P1;durP2;ratioP2;P2;SDS_P1;SDS_P2;PMS_P1;PMS_P2;Temp;Humidity;BMP_temperature;BMP_pressure;BME280_temperature;BME280_humidity;BME280_pressure;Samples;Min_cycle;Max_cycle;Signal;HPM_P1;HPM_P2
2023/09/08 00:02:04;;;;;;;5.43;5.03;;;;;;;;;;5066557;28;20204;-83
2023/09/08 00:04:30;;;;;;;5.40;4.90;;;;;;;;;;5070524;28;20674;-83
2023/09/08 00:06:56;;;;;;;5.57;5.07;;;;;;;;;;5072327;28;20182;-83
2023/09/08 00:09:22;;;;;;;5.83;5.33;;;;;;;;;;5070882;28;20246;-83
2023/09/08 00:11:48;;;;;;;5.13;4.50;;;;;;;;;;5072878;28;20453;-83
2023/09/08 00:14:14;;;;;;;4.90;4.50;;;;;;;;;;5071846;28;20200;-84
2023/09/08 00:16:42;;;;;;;5.27;4.83;;;;;;;;;;5071705;28;20198;-83
2023/09/08 00:19:09;;;;;;;5.57;5.07;;;;;;;;;;5071691;28;20173;-84
2023/09/08 00:21:35;;;;;;;5.00;4.50;;;;;;;;;;5070923;28;20199;-82
2023/09/08 00:24:01;;;;;;;5.53;4.97;;;;;;;;;;5069828;28;20665;-83
2023/09/08 00:26:27;;;;;;;5.40;4.93;;;;;;;;;;5069353;28;20181;-83
2023/09/08 00:28:53;;;;;;;4.90;4.50;;;;;;;;;;5065416;28;20562;-82
2023/09/08 00:31:19;;;;;;;5.23;4.67;;;;;;;;;;5065651;28;20189;-83
2023/09/08 00:33:45;;;;;;;5.07;4.67;;;;;;;;;;5069433;28;20173;-83
2023/09/08 00:36:11;;;;;;;4.93;4.53;;;;;;;;;;5066066;28;20213;-83
2023/09/08 00:38:37;;;;;;;5.23;4.83;;;;;;;;;;5071120;28;20586;-83
2023/09/08 00:41:05;;;;;;;4.77;4.03;;;;;;;;;;5069263;28;20614;-82
2023/09/08 00:43:31;;;;;;;4.80;4.40;;;;;;;;;;5071040;28;20177;-83
2023/09/08 00:45:58;;;;;;;5.37;4.87;;;;;;;;;;5068733;28;20653;-82
2023/09/08 00:48:25;;;;;;;5.30;4.80;;;;;;;;;;5067498;28;20203;-83
2023/09/08 00:50:51;;;;;;;5.23;4.83;;;;;;;;;;5071778;28;20616;-82
2023/09/08 00:53:17;;;;;;;5.22;4.82;;;;;;;;;;5072458;28;20430;-82
2023/09/08 00:55:44;;;;;;;5.63;5.13;;;;;;;;;;5072186;28;20223;-83
2023/09/08 00:58:11;;;;;;;5.57;4.87;;;;;;;;;;5070831;28;20193;-82
2023/09/08 01:00:38;;;;;;;5.93;4.47;;;;;;;;;;5070459;28;20169;-83
2023/09/08 01:03:04;;;;;;;4.53;4.23;;;;;;;;;;5068079;28;20731;-80
2023/09/08 01:05:30;;;;;;;5.13;4.73;;;;;;;;;;5070979;28;20196;-81
2023/09/08 01:07:56;;;;;;;5.23;4.60;;;;;;;;;;5072143;28;20220;-80
2023/09/08 01:10:22;;;;;;;4.63;4.23;;;;;;;;;;5058277;28;20188;-81
2023/09/08 01:12:48;;;;;;;4.97;4.47;;;;;;;;;;5063641;28;20186;-81
2023/09/08 01:15:14;;;;;;;5.17;4.70;;;;;;;;;;5049947;28;20215;-82
2023/09/08 01:20:22;;;;;;;4.87;4.47;;;;;;;;;;2822790;22;20301;-57
2023/09/08 01:22:48;;;;;;;5.00;4.60;;;;;;;;;;5045963;28;20529;-56
2023/09/08 01:25:24;;;;;;;5.03;4.63;;;;;;;;;;5044721;28;20616;-58
2023/09/08 01:27:52;;;;;;;5.20;4.80;;;;;;;;;;5047059;28;20188;-58
2023/09/08 01:30:18;;;;;;;7.47;6.97;;;;;;;;;;5040259;28;20652;-58
2023/09/08 01:32:45;;;;;;;4.60;4.30;;;;;;;;;;5043307;28;20705;-58
2023/09/08 01:35:11;;;;;;;5.17;4.77;;;;;;;;;;5042258;28;20702;-58
2023/09/08 01:37:42;;;;;;;4.50;4.20;;;;;;;;;;5040216;28;20184;-58
2023/09/08 01:40:10;;;;;;;5.10;4.33;;;;;;;;;;5046944;28;20204;-58
2023/09/08 01:42:36;;;;;;;5.00;4.60;;;;;;;;;;5044275;28;20179;-58
2023/09/08 01:45:02;;;;;;;5.10;4.70;;;;;;;;;;5043620;28;20188;-58
2023/09/08 01:47:30;;;;;;;7.43;4.90;;;;;;;;;;5042763;28;20295;-58
2023/09/08 01:49:56;;;;;;;5.30;4.80;;;;;;;;;;5046399;28;20205;-58
2023/09/08 01:52:22;;;;;;;6.10;5.27;;;;;;;;;;5045197;28;20186;-58
2023/09/08 01:54:48;;;;;;;4.63;4.27;;;;;;;;;;5046173;28;20657;-58
2023/09/08 01:57:14;;;;;;;4.67;4.27;;;;;;;;;;5045265;28;20820;-58
2023/09/08 01:59:40;;;;;;;6.50;5.17;;;;;;;;;;5042250;28;20203;-58
2023/09/08 02:02:06;;;;;;;4.80;4.40;;;;;;;;;;5044249;28;20530;-58
2023/09/08 02:04:38;;;;;;;5.17;4.77;;;;;;;;;;5045930;28;20532;-58
2023/09/08 02:07:04;;;;;;;5.57;4.30;;;;;;;;;;5040553;28;20201;-58
2023/09/08 02:09:38;;;;;;;5.07;4.60;;;;;;;;;;5040577;28;20204;-58
2023/09/08 02:12:04;;;;;;;4.80;4.40;;;;;;;;;;5043790;28;20653;-57
2023/09/08 02:14:31;;;;;;;5.43;4.93;;;;;;;;;;5039379;28;20551;-58
2023/09/08 02:16:57;;;;;;;5.27;4.87;;;;;;;;;;5043422;28;20212;-58
2023/09/08 02:19:23;;;;;;;5.20;4.80;;;;;;;;;;5043965;28;20439;-58
2023/09/08 02:21:50;;;;;;;5.03;4.63;;;;;;;;;;5040227;28;20215;-58
2023/09/08 02:24:16;;;;;;;5.33;4.90;;;;;;;;;;5040622;28;20587;-58
2023/09/08 02:26:42;;;;;;;4.63;4.23;;;;;;;;;;5043067;28;20230;-60
2023/09/08 02:29:11;;;;;;;4.90;4.50;;;;;;;;;;5044814;28;20183;-58
2023/09/08 02:31:37;;;;;;;5.00;4.60;;;;;;;;;;5041163;28;20199;-57
2023/09/08 02:34:04;;;;;;;5.00;4.57;;;;;;;;;;5041338;28;20193;-56
2023/09/08 02:36:30;;;;;;;5.07;4.67;;;;;;;;;;5045132;28;20312;-55
2023/09/08 02:38:56;;;;;;;4.97;4.57;;;;;;;;;;5045643;28;20180;-56
2023/09/08 02:41:23;;;;;;;5.20;4.77;;;;;;;;;;5048005;28;20228;-56
2023/09/08 02:43:49;;;;;;;5.80;5.23;;;;;;;;;;5046271;28;20263;-56
2023/09/08 02:46:16;;;;;;;5.33;4.83;;;;;;;;;;5044615;28;20315;-56
2023/09/08 02:48:42;;;;;;;4.73;4.33;;;;;;;;;;5043040;28;20192;-56
2023/09/08 02:51:08;;;;;;;4.80;4.40;;;;;;;;;;5044011;28;20181;-55
2023/09/08 02:53:34;;;;;;;4.67;4.33;;;;;;;;;;5044138;28;20197;-55
2023/09/08 02:56:00;;;;;;;5.07;4.67;;;;;;;;;;5041279;28;20208;-55
2023/09/08 02:58:27;;;;;;;5.23;4.77;;;;;;;;;;5028187;28;20344;-56
2023/09/08 03:00:53;;;;;;;5.60;5.10;;;;;;;;;;5044996;28;20173;-56
2023/09/08 03:03:20;;;;;;;5.90;5.50;;;;;;;;;;5043355;28;20185;-56
2023/09/08 03:05:48;;;;;;;5.57;5.07;;;;;;;;;;5045782;28;20189;-56
2023/09/08 03:08:14;;;;;;;4.77;4.43;;;;;;;;;;5027469;28;20660;-55
2023/09/08 03:10:41;;;;;;;4.97;4.57;;;;;;;;;;5046268;28;20217;-57
2023/09/08 03:13:07;;;;;;;5.13;4.67;;;;;;;;;;5039120;28;20713;-56
2023/09/08 03:15:35;;;;;;;4.70;4.40;;;;;;;;;;5045968;28;20323;-56
2023/09/08 03:18:01;;;;;;;4.57;4.17;;;;;;;;;;5041252;28;20246;-56
2023/09/08 03:20:30;;;;;;;5.10;4.23;;;;;;;;;;5042254;28;20224;-57
2023/09/08 03:22:56;;;;;;;4.70;4.30;;;;;;;;;;5042056;28;20251;-56
2023/09/08 03:25:22;;;;;;;4.43;4.13;;;;;;;;;;5045595;28;20185;-56
2023/09/08 03:27:48;;;;;;;5.03;4.63;;;;;;;;;;5043753;28;20201;-60
2023/09/08 03:30:14;;;;;;;5.07;4.57;;;;;;;;;;5046824;28;20189;-56
2023/09/08 03:32:40;;;;;;;5.20;4.70;;;;;;;;;;5045708;28;20940;-57
2023/09/08 03:35:07;;;;;;;5.03;4.63;;;;;;;;;;5044129;28;20303;-56
2023/09/08 03:37:34;;;;;;;5.10;4.70;;;;;;;;;;5046802;28;20644;-57
2023/09/08 03:40:04;;;;;;;5.20;4.70;;;;;;;;;;5045316;28;20362;-56
2023/09/08 03:42:30;;;;;;;5.27;4.77;;;;;;;;;;5023225;28;20177;-56
2023/09/08 03:44:56;;;;;;;5.17;4.67;;;;;;;;;;5049879;28;20205;-57
2023/09/08 03:47:22;;;;;;;5.03;4.63;;;;;;;;;;5029453;28;20196;-57
2023/09/08 03:49:48;;;;;;;5.47;4.93;;;;;;;;;;5048317;28;20173;-57
2023/09/08 03:52:14;;;;;;;5.67;4.97;;;;;;;;;;5050322;28;20181;-57
2023/09/08 03:54:41;;;;;;;5.30;4.47;;;;;;;;;;5050349;28;20235;-57
2023/09/08 03:57:07;;;;;;;4.83;4.43;;;;;;;;;;5049236;28;20292;-58
2023/09/08 03:59:33;;;;;;;4.70;4.30;;;;;;;;;;5048676;28;20185;-57
2023/09/08 04:02:01;;;;;;;5.30;4.90;;;;;;;;;;5051102;28;20551;-57
2023/09/08 04:04:27;;;;;;;5.07;4.60;;;;;;;;;;5046518;28;20177;-57
2023/09/08 04:06:53;;;;;;;4.90;4.50;;;;;;;;;;5049472;28;20691;-57
2023/09/08 04:09:19;;;;;;;6.23;5.83;;;;;;;;;;5047861;28;20482;-57
2023/09/08 04:11:45;;;;;;;5.30;4.90;;;;;;;;;;5050871;28;20182;-57
2023/09/08 04:14:11;;;;;;;5.30;4.80;;;;;;;;;;5050364;28;20207;-57
2023/09/08 04:16:38;;;;;;;4.97;4.57;;;;;;;;;;5027692;28;20197;-57
2023/09/08 04:19:04;;;;;;;5.03;4.63;;;;;;;;;;5047866;28;20978;-57
2023/09/08 04:21:30;;;;;;;4.57;4.27;;;;;;;;;;5048237;28;20228;-57
2023/09/08 04:23:56;;;;;;;4.77;4.37;;;;;;;;;;5047747;28;20193;-57
2023/09/08 04:26:22;;;;;;;5.37;4.87;;;;;;;;;;5048186;28;20196;-58
2023/09/08 04:28:48;;;;;;;5.83;4.37;;;;;;;;;;5049265;28;20236;-58
2023/09/08 04:31:16;;;;;;;4.70;4.30;;;;;;;;;;5048901;28;20189;-58
2023/09/08 04:33:42;;;;;;;6.23;4.83;;;;;;;;;;5047867;28;20652;-58
2023/09/08 04:36:10;;;;;;;6.03;5.57;;;;;;;;;;5048116;28;20255;-58
2023/09/08 04:38:37;;;;;;;5.30;4.90;;;;;;;;;;5047101;28;20192;-58
2023/09/08 04:41:03;;;;;;;6.77;4.50;;;;;;;;;;5048934;28;20208;-58
2023/09/08 04:43:29;;;;;;;5.43;5.03;;;;;;;;;;5049550;28;20737;-58
2023/09/08 04:45:55;;;;;;;4.67;4.27;;;;;;;;;;5043792;28;20232;-58
2023/09/08 04:48:21;;;;;;;6.00;4.87;;;;;;;;;;5031396;28;20210;-58
2023/09/08 04:50:51;;;;;;;4.87;4.47;;;;;;;;;;5040555;28;20222;-58
2023/09/08 04:53:17;;;;;;;4.53;4.13;;;;;;;;;;5047804;28;20186;-57
2023/09/08 04:55:46;;;;;;;5.17;4.77;;;;;;;;;;5044644;28;20229;-58
2023/09/08 04:58:12;;;;;;;5.67;4.50;;;;;;;;;;5045153;28;20177;-58
2023/09/08 05:00:40;;;;;;;5.67;5.13;;;;;;;;;;5046166;28;20675;-58
2023/09/08 05:03:06;;;;;;;6.90;5.00;;;;;;;;;;5044576;28;20539;-58
2023/09/08 05:05:32;;;;;;;4.40;4.00;;;;;;;;;;5044415;28;20683;-59
2023/09/08 05:07:59;;;;;;;4.43;4.13;;;;;;;;;;5038587;28;20185;-58
2023/09/08 05:10:25;;;;;;;4.87;4.47;;;;;;;;;;5040545;28;20188;-57
2023/09/08 05:13:13;;;;;;;5.10;4.63;;;;;;;;;;5015350;28;20192;-58
2023/09/08 05:15:42;;;;;;;5.50;5.00;;;;;;;;;;5016761;28;20205;-59
2023/09/08 05:18:08;;;;;;;5.10;4.60;;;;;;;;;;5048156;28;20664;-58
2023/09/08 05:20:34;;;;;;;5.60;5.10;;;;;;;;;;5046130;28;20229;-58
2023/09/08 05:23:00;;;;;;;5.10;4.67;;;;;;;;;;5045243;28;20207;-58
2023/09/08 05:25:26;;;;;;;9.53;6.77;;;;;;;;;;5041577;28;20250;-58
2023/09/08 05:27:52;;;;;;;5.40;4.57;;;;;;;;;;5040712;28;20650;-58
2023/09/08 05:30:18;;;;;;;4.80;4.37;;;;;;;;;;5045500;28;20266;-58
2023/09/08 05:32:44;;;;;;;5.53;5.03;;;;;;;;;;5044242;28;20197;-58
2023/09/08 05:35:11;;;;;;;6.07;5.47;;;;;;;;;;5044183;28;20268;-57
2023/09/08 05:37:37;;;;;;;5.37;4.87;;;;;;;;;;5044326;28;20180;-57
2023/09/08 05:40:05;;;;;;;7.27;5.17;;;;;;;;;;5044639;28;20196;-57
2023/09/08 05:42:31;;;;;;;6.23;5.10;;;;;;;;;;5048042;28;20204;-57
2023/09/08 05:44:57;;;;;;;7.13;4.97;;;;;;;;;;5046777;28;20188;-57
2023/09/08 05:47:23;;;;;;;6.00;5.40;;;;;;;;;;5048954;28;20189;-58
2023/09/08 05:49:49;;;;;;;6.37;4.90;;;;;;;;;;5048103;28;20200;-57
2023/09/08 05:52:15;;;;;;;16.07;5.73;;;;;;;;;;5048564;28;20517;-57
2023/09/08 05:54:41;;;;;;;7.37;5.23;;;;;;;;;;5047057;28;20192;-58
2023/09/08 05:57:08;;;;;;;6.90;5.57;;;;;;;;;;5048605;28;20749;-57
2023/09/08 05:59:34;;;;;;;6.47;5.03;;;;;;;;;;5041490;28;20189;-57
2023/09/08 06:02:00;;;;;;;8.53;4.97;;;;;;;;;;5048645;28;20226;-57
2023/09/08 06:04:26;;;;;;;8.23;5.60;;;;;;;;;;5047031;28;20655;-57
2023/09/08 06:06:52;;;;;;;6.03;5.43;;;;;;;;;;5046978;28;20280;-57
2023/09/08 06:09:18;;;;;;;5.77;5.27;;;;;;;;;;5045732;28;20210;-57
2023/09/08 06:11:44;;;;;;;6.70;6.00;;;;;;;;;;5045981;28;20185;-57
2023/09/08 06:14:10;;;;;;;5.50;5.00;;;;;;;;;;5043832;28;20185;-57
2023/09/08 06:16:37;;;;;;;5.93;5.00;;;;;;;;;;5041785;28;20205;-59
2023/09/08 06:19:03;;;;;;;6.03;5.43;;;;;;;;;;5043733;28;20198;-59
2023/09/08 06:21:31;;;;;;;5.77;5.07;;;;;;;;;;5043104;28;20252;-59
2023/09/08 06:23:58;;;;;;;5.40;4.80;;;;;;;;;;5046441;28;20196;-60
2023/09/08 06:26:24;;;;;;;6.37;5.70;;;;;;;;;;5025479;28;20189;-58
2023/09/08 06:28:50;;;;;;;5.90;5.40;;;;;;;;;;5047742;28;20668;-58
2023/09/08 06:31:16;;;;;;;7.77;5.93;;;;;;;;;;5028209;28;20177;-57
2023/09/08 06:33:42;;;;;;;6.37;5.67;;;;;;;;;;5045567;28;20184;-58
2023/09/08 06:36:08;;;;;;;5.87;5.10;;;;;;;;;;5046376;28;20209;-57
2023/09/08 06:38:34;;;;;;;5.30;4.80;;;;;;;;;;5045946;28;20173;-57
2023/09/08 06:41:00;;;;;;;5.47;4.97;;;;;;;;;;5046992;28;20200;-57
2023/09/08 06:43:27;;;;;;;9.70;5.53;;;;;;;;;;5047065;28;20185;-57
2023/09/08 06:45:53;;;;;;;8.57;5.50;;;;;;;;;;5046441;28;20188;-58
2023/09/08 06:48:19;;;;;;;5.63;5.13;;;;;;;;;;5047054;28;20300;-58
2023/09/08 06:50:45;;;;;;;6.73;5.57;;;;;;;;;;5046881;28;20700;-59
2023/09/08 06:53:12;;;;;;;7.73;5.53;;;;;;;;;;5047103;28;20176;-58
2023/09/08 06:55:38;;;;;;;8.13;6.47;;;;;;;;;;5046599;28;20204;-58
2023/09/08 06:58:04;;;;;;;6.33;5.70;;;;;;;;;;5047491;28;20182;-58
2023/09/08 07:00:31;;;;;;;6.00;5.30;;;;;;;;;;5044824;28;20287;-58
2023/09/08 07:02:57;;;;;;;6.33;5.70;;;;;;;;;;5044323;28;20185;-58
2023/09/08 07:05:23;;;;;;;7.57;5.87;;;;;;;;;;5045494;28;20213;-58
2023/09/08 07:07:52;;;;;;;7.10;6.40;;;;;;;;;;5046556;28;20180;-58
2023/09/08 07:10:18;;;;;;;5.73;5.13;;;;;;;;;;5040399;28;20180;-57
2023/09/08 07:12:44;;;;;;;6.63;6.03;;;;;;;;;;5040113;28;20296;-58
2023/09/08 07:15:10;;;;;;;6.63;6.03;;;;;;;;;;5042680;28;20271;-57
2023/09/08 07:17:36;;;;;;;7.00;6.40;;;;;;;;;;5028467;28;20178;-59
2023/09/08 07:20:03;;;;;;;6.77;5.50;;;;;;;;;;5046882;28;20220;-58
2023/09/08 07:22:29;;;;;;;7.90;6.17;;;;;;;;;;5047079;28;20269;-58
2023/09/08 07:24:55;;;;;;;7.63;6.07;;;;;;;;;;5045561;28;20184;-58
2023/09/08 07:27:21;;;;;;;7.20;6.50;;;;;;;;;;5045600;28;20182;-58
2023/09/08 07:29:49;;;;;;;8.50;6.43;;;;;;;;;;5039466;28;20551;-59
2023/09/08 07:32:16;;;;;;;9.00;5.93;;;;;;;;;;5028990;28;20190;-58
2023/09/08 07:34:42;;;;;;;9.57;5.73;;;;;;;;;;5029304;28;20190;-59
2023/09/08 07:37:08;;;;;;;6.17;5.57;;;;;;;;;;5044566;28;20554;-59
2023/09/08 07:39:35;;;;;;;7.27;5.63;;;;;;;;;;5046052;28;20190;-59
2023/09/08 07:42:01;;;;;;;5.63;5.13;;;;;;;;;;5028330;28;20249;-59
2023/09/08 07:44:28;;;;;;;7.50;5.43;;;;;;;;;;5047616;28;20180;-59
2023/09/08 07:46:56;;;;;;;6.10;5.50;;;;;;;;;;5045534;28;20278;-59
2023/09/08 07:49:23;;;;;;;5.43;4.80;;;;;;;;;;5046591;28;20692;-59
2023/09/08 07:51:49;;;;;;;5.63;5.00;;;;;;;;;;5045048;28;20195;-59
2023/09/08 07:54:15;;;;;;;4.93;4.53;;;;;;;;;;5047652;28;20786;-59
2023/09/08 07:56:41;;;;;;;5.57;5.07;;;;;;;;;;5045638;28;20208;-58
2023/09/08 07:59:07;;;;;;;5.87;4.90;;;;;;;;;;5047193;28;20183;-57
2023/09/08 08:01:33;;;;;;;5.30;4.90;;;;;;;;;;5046907;28;20669;-59
2023/09/08 08:04:00;;;;;;;5.30;4.90;;;;;;;;;;5029528;28;20550;-59
2023/09/08 08:06:27;;;;;;;5.53;4.67;;;;;;;;;;5037144;28;20672;-59
2023/09/08 08:08:53;;;;;;;8.67;5.00;;;;;;;;;;5046373;28;20193;-58
2023/09/08 08:11:20;;;;;;;5.40;4.97;;;;;;;;;;5046850;28;20258;-58
2023/09/08 08:13:49;;;;;;;6.20;4.45;;;;;;;;;;5046040;28;20245;-57
2023/09/08 08:16:15;;;;;;;4.90;4.43;;;;;;;;;;5026636;28;20213;-56
2023/09/08 08:18:42;;;;;;;5.03;4.57;;;;;;;;;;5045716;28;20242;-57
2023/09/08 08:21:08;;;;;;;5.47;4.97;;;;;;;;;;5044933;28;20311;-57
2023/09/08 08:23:35;;;;;;;4.27;3.87;;;;;;;;;;5049783;28;20176;-57
2023/09/08 08:26:01;;;;;;;4.63;4.13;;;;;;;;;;5048574;28;20192;-57
2023/09/08 08:28:30;;;;;;;5.13;4.63;;;;;;;;;;5050898;28;20196;-57
2023/09/08 08:30:56;;;;;;;5.40;4.90;;;;;;;;;;5046035;28;20651;-57
2023/09/08 08:33:25;;;;;;;6.83;4.50;;;;;;;;;;5048292;28;20188;-55
2023/09/08 08:35:54;;;;;;;6.97;4.57;;;;;;;;;;5043229;28;20638;-56
2023/09/08 08:38:20;;;;;;;6.10;4.57;;;;;;;;;;5047852;28;20669;-56
2023/09/08 08:40:47;;;;;;;5.30;4.90;;;;;;;;;;5049806;28;20631;-56
2023/09/08 08:43:13;;;;;;;4.63;4.23;;;;;;;;;;5048247;28;20186;-56
2023/09/08 08:45:40;;;;;;;8.03;4.90;;;;;;;;;;5047980;28;20277;-57
2023/09/08 08:48:06;;;;;;;8.13;4.63;;;;;;;;;;5050295;28;20185;-56
2023/09/08 08:50:33;;;;;;;6.33;4.57;;;;;;;;;;5045073;28;20200;-56
2023/09/08 08:52:59;;;;;;;6.23;5.37;;;;;;;;;;5050900;28;20178;-56
2023/09/08 08:55:26;;;;;;;4.53;4.13;;;;;;;;;;5049509;28;20189;-59
2023/09/08 08:57:55;;;;;;;5.60;4.83;;;;;;;;;;5039110;28;20181;-59
2023/09/08 09:00:21;;;;;;;7.40;4.70;;;;;;;;;;5047099;28;20185;-59
2023/09/08 09:02:51;;;;;;;5.00;4.50;;;;;;;;;;5050493;28;20204;-58
2023/09/08 09:05:18;;;;;;;5.37;4.70;;;;;;;;;;5048956;28;20177;-58
2023/09/08 09:07:45;;;;;;;5.40;4.90;;;;;;;;;;5048360;28;20554;-59
2023/09/08 09:10:11;;;;;;;5.00;4.60;;;;;;;;;;5049275;28;20231;-60
2023/09/08 09:12:40;;;;;;;5.17;4.57;;;;;;;;;;5048867;28;20289;-59
2023/09/08 09:15:08;;;;;;;6.27;5.23;;;;;;;;;;5046978;28;20650;-59
2023/09/08 09:17:34;;;;;;;8.17;4.90;;;;;;;;;;5049477;28;20201;-59
2023/09/08 09:20:14;;;;;;;7.30;4.57;;;;;;;;;;5048089;28;20221;-59
2023/09/08 09:22:41;;;;;;;4.90;4.50;;;;;;;;;;5027989;28;20188;-59
2023/09/08 09:25:10;;;;;;;4.93;4.53;;;;;;;;;;5045106;28;20185;-59
2023/09/08 09:27:38;;;;;;;4.80;4.40;;;;;;;;;;5049496;28;20648;-59
2023/09/08 09:30:05;;;;;;;5.53;5.03;;;;;;;;;;5049129;28;20239;-59
2023/09/08 09:32:31;;;;;;;5.30;4.90;;;;;;;;;;5048610;28;20220;-59
2023/09/08 09:35:00;;;;;;;5.03;4.63;;;;;;;;;;5047930;28;20194;-59
2023/09/08 09:37:29;;;;;;;6.13;4.80;;;;;;;;;;5029412;28;20741;-59
2023/09/08 09:39:55;;;;;;;5.27;4.83;;;;;;;;;;5048866;28;20184;-58
2023/09/08 09:42:22;;;;;;;4.83;4.43;;;;;;;;;;5049569;28;20185;-58
2023/09/08 09:44:51;;;;;;;5.70;4.83;;;;;;;;;;5028929;28;20184;-58
2023/09/08 09:47:17;;;;;;;6.77;5.10;;;;;;;;;;5048075;28;20674;-59
2023/09/08 09:49:44;;;;;;;5.80;5.30;;;;;;;;;;5048082;28;20188;-59
2023/09/08 09:52:13;;;;;;;4.80;4.30;;;;;;;;;;5047656;28;20189;-58
2023/09/08 09:54:43;;;;;;;5.83;5.33;;;;;;;;;;5048885;28;20277;-59
2023/09/08 09:57:13;;;;;;;5.20;4.80;;;;;;;;;;5047466;28;20659;-59
2023/09/08 09:59:41;;;;;;;5.17;4.67;;;;;;;;;;5048065;28;20184;-58
2023/09/08 10:02:12;;;;;;;5.30;4.80;;;;;;;;;;5049114;28;20213;-58
2023/09/08 10:04:39;;;;;;;7.43;5.70;;;;;;;;;;5037492;28;20191;-58
2023/09/08 10:07:06;;;;;;;5.90;5.30;;;;;;;;;;5043715;28;20262;-58
2023/09/08 10:09:32;;;;;;;5.20;4.70;;;;;;;;;;5048435;28;20281;-58
2023/09/08 10:12:00;;;;;;;5.27;4.60;;;;;;;;;;5047791;28;20187;-58
2023/09/08 10:14:27;;;;;;;4.90;4.50;;;;;;;;;;5046348;28;20723;-59
2023/09/08 10:16:57;;;;;;;5.30;4.80;;;;;;;;;;5045474;28;20212;-59
2023/09/08 10:19:30;;;;;;;5.17;4.77;;;;;;;;;;5048302;28;20212;-59
2023/09/08 10:22:03;;;;;;;4.87;4.47;;;;;;;;;;5041843;28;20221;-60
2023/09/08 10:24:33;;;;;;;5.30;4.80;;;;;;;;;;5048704;28;20259;-60
2023/09/08 10:27:03;;;;;;;5.23;4.80;;;;;;;;;;5029039;28;20222;-60
2023/09/08 10:29:30;;;;;;;6.83;5.20;;;;;;;;;;5047095;28;20278;-59
2023/09/08 10:31:56;;;;;;;5.17;4.37;;;;;;;;;;5048502;28;20513;-59
2023/09/08 10:34:24;;;;;;;5.10;4.60;;;;;;;;;;5045427;28;20564;-59
2023/09/08 10:36:50;;;;;;;4.97;4.53;;;;;;;;;;5045341;28;20282;-55
2023/09/08 10:39:31;;;;;;;5.30;4.90;;;;;;;;;;5030969;28;20186;-55
2023/09/08 10:42:17;;;;;;;6.28;4.95;;;;;;;;;;5043097;28;20208;-55
2023/09/08 10:44:49;;;;;;;5.50;5.00;;;;;;;;;;5046378;28;20575;-55
2023/09/08 10:47:19;;;;;;;6.13;5.33;;;;;;;;;;5046748;28;20262;-55
2023/09/08 10:49:46;;;;;;;5.23;4.83;;;;;;;;;;5048721;28;20185;-58
2023/09/08 10:52:13;;;;;;;5.17;4.70;;;;;;;;;;5019198;28;20185;-56
2023/09/08 10:54:43;;;;;;;5.50;5.00;;;;;;;;;;5048508;28;20262;-56
2023/09/08 10:57:16;;;;;;;5.90;5.40;;;;;;;;;;5047782;28;20228;-57
2023/09/08 10:59:46;;;;;;;5.37;4.90;;;;;;;;;;5027617;28;20572;-56
2023/09/08 11:02:31;;;;;;;5.82;5.30;;;;;;;;;;5047171;28;20181;-56
2023/09/08 11:04:57;;;;;;;5.50;5.00;;;;;;;;;;5047853;28;20189;-55
2023/09/08 11:07:25;;;;;;;5.40;5.00;;;;;;;;;;5045037;28;20189;-56
2023/09/08 11:09:51;;;;;;;5.97;5.37;;;;;;;;;;5047060;28;20315;-56
2023/09/08 11:12:18;;;;;;;6.30;5.70;;;;;;;;;;5047908;28;20191;-55
2023/09/08 11:14:44;;;;;;;5.70;5.20;;;;;;;;;;5046595;28;20671;-56
2023/09/08 11:17:10;;;;;;;5.17;4.77;;;;;;;;;;5046789;28;20595;-55
2023/09/08 11:19:49;;;;;;;6.37;5.77;;;;;;;;;;5043459;28;20225;-56
2023/09/08 11:22:16;;;;;;;6.17;5.67;;;;;;;;;;5046199;28;20543;-56
2023/09/08 11:24:43;;;;;;;5.40;5.00;;;;;;;;;;5043739;28;20201;-56
2023/09/08 11:27:09;;;;;;;6.20;5.70;;;;;;;;;;5042487;28;20185;-56
2023/09/08 11:29:36;;;;;;;5.70;5.17;;;;;;;;;;5047002;28;20212;-56
2023/09/08 11:32:05;;;;;;;4.97;4.57;;;;;;;;;;5045781;28;20243;-56
2023/09/08 11:34:32;;;;;;;6.20;4.90;;;;;;;;;;5047526;28;20211;-56
2023/09/08 11:36:58;;;;;;;6.17;5.67;;;;;;;;;;5042680;28;20218;-56
2023/09/08 11:39:25;;;;;;;6.30;5.80;;;;;;;;;;5039811;28;20182;-57
2023/09/08 11:41:52;;;;;;;5.10;4.70;;;;;;;;;;5043023;28;20278;-57
2023/09/08 11:44:18;;;;;;;5.73;4.83;;;;;;;;;;5046709;28;20204;-56
2023/09/08 11:46:45;;;;;;;6.37;5.03;;;;;;;;;;5041569;28;20183;-55
2023/09/08 11:49:11;;;;;;;8.00;5.47;;;;;;;;;;5047327;28;20196;-56
2023/09/08 11:51:38;;;;;;;5.33;4.93;;;;;;;;;;5046841;28;20262;-58
2023/09/08 11:54:04;;;;;;;5.53;5.03;;;;;;;;;;5045075;28;20189;-56
2023/09/08 11:56:32;;;;;;;5.80;5.40;;;;;;;;;;5045736;28;20320;-56
2023/09/08 11:58:58;;;;;;;6.27;5.77;;;;;;;;;;5050451;28;20238;-57
2023/09/08 12:01:25;;;;;;;6.20;5.60;;;;;;;;;;5029086;28;20189;-56
2023/09/08 12:03:55;;;;;;;6.33;5.47;;;;;;;;;;5050986;28;20215;-55
2023/09/08 12:06:24;;;;;;;7.03;5.53;;;;;;;;;;5048308;28;20188;-57
2023/09/08 12:08:50;;;;;;;8.50;5.70;;;;;;;;;;5049784;28;20750;-57
2023/09/08 12:11:17;;;;;;;5.50;5.00;;;;;;;;;;5050186;28;20211;-55
2023/09/08 12:13:43;;;;;;;7.23;6.43;;;;;;;;;;5045595;28;20269;-55
2023/09/08 12:16:24;;;;;;;7.40;5.53;;;;;;;;;;5049739;28;20205;-55
2023/09/08 12:18:51;;;;;;;5.33;4.93;;;;;;;;;;5043877;28;20555;-56
2023/09/08 12:21:17;;;;;;;8.50;6.00;;;;;;;;;;5047746;28;20223;-55
2023/09/08 12:23:53;;;;;;;8.23;5.87;;;;;;;;;;5049322;28;20196;-55
2023/09/08 12:26:19;;;;;;;6.13;5.53;;;;;;;;;;5043759;28;20185;-57
2023/09/08 12:28:46;;;;;;;5.70;5.30;;;;;;;;;;5050457;28;20628;-55
2023/09/08 12:31:16;;;;;;;5.73;5.20;;;;;;;;;;5048279;28;20558;-55
2023/09/08 12:33:45;;;;;;;6.13;5.50;;;;;;;;;;5048313;28;20267;-55
2023/09/08 12:36:13;;;;;;;6.50;5.83;;;;;;;;;;5040708;28;20210;-56
2023/09/08 12:38:39;;;;;;;5.72;5.18;;;;;;;;;;5046014;28;20191;-55
2023/09/08 12:41:05;;;;;;;5.57;5.05;;;;;;;;;;5045981;28;20181;-55
2023/09/08 12:43:31;;;;;;;5.95;5.35;;;;;;;;;;5049619;28;20661;-56
2023/09/08 12:45:57;;;;;;;5.70;5.20;;;;;;;;;;5049813;28;20738;-56
2023/09/08 12:48:24;;;;;;;6.75;5.32;;;;;;;;;;5046483;28;20265;-58
2023/09/08 12:50:50;;;;;;;5.00;4.60;;;;;;;;;;5038923;28;20185;-56
2023/09/08 12:53:19;;;;;;;5.38;4.82;;;;;;;;;;5047155;28;20684;-55
2023/09/08 12:55:46;;;;;;;6.40;5.55;;;;;;;;;;5041923;28;20197;-56
2023/09/08 12:58:13;;;;;;;5.47;4.97;;;;;;;;;;5045531;28;20235;-55
2023/09/08 13:00:39;;;;;;;6.00;5.53;;;;;;;;;;5029428;28;20181;-58
2023/09/08 13:03:05;;;;;;;9.70;5.07;;;;;;;;;;5031795;28;20178;-56
2023/09/08 13:05:31;;;;;;;8.43;5.43;;;;;;;;;;5024368;28;20174;-56
2023/09/08 13:07:58;;;;;;;6.32;5.35;;;;;;;;;;5045448;28;20178;-56
2023/09/08 13:10:24;;;;;;;6.15;5.40;;;;;;;;;;5046348;28;20166;-57
2023/09/08 13:12:51;;;;;;;7.30;4.75;;;;;;;;;;5047348;28;20201;-57
2023/09/08 13:15:18;;;;;;;5.85;5.32;;;;;;;;;;5030217;28;20651;-57
2023/09/08 13:17:44;;;;;;;7.82;5.78;;;;;;;;;;5044649;28;20474;-57
2023/09/08 13:20:12;;;;;;;5.63;5.05;;;;;;;;;;5046781;28;20849;-57
2023/09/08 13:22:38;;;;;;;5.65;5.10;;;;;;;;;;5046815;28;20189;-57
2023/09/08 13:25:04;;;;;;;6.60;5.57;;;;;;;;;;5046874;28;20513;-55
2023/09/08 13:27:30;;;;;;;6.07;5.57;;;;;;;;;;5046475;28;20310;-55
2023/09/08 13:30:17;;;;;;;6.35;5.43;;;;;;;;;;5047739;28;20214;-55
2023/09/08 13:32:43;;;;;;;6.03;5.53;;;;;;;;;;5044120;28;20173;-55
2023/09/08 13:35:10;;;;;;;5.97;5.38;;;;;;;;;;5048285;28;20192;-55
2023/09/08 13:37:37;;;;;;;7.30;6.43;;;;;;;;;;5046118;28;20695;-55
2023/09/08 13:40:04;;;;;;;6.72;5.82;;;;;;;;;;5049297;28;20178;-55
2023/09/08 13:42:30;;;;;;;5.90;5.30;;;;;;;;;;5048800;28;20173;-55
2023/09/08 13:44:56;;;;;;;5.90;5.47;;;;;;;;;;5046830;28;20186;-55
2023/09/08 13:47:23;;;;;;;6.82;5.28;;;;;;;;;;5023551;28;20284;-55
2023/09/08 13:49:49;;;;;;;6.40;5.90;;;;;;;;;;5045377;28;20177;-54
2023/09/08 13:52:15;;;;;;;9.20;6.00;;;;;;;;;;5047964;28;20193;-55
2023/09/08 13:54:41;;;;;;;6.00;5.50;;;;;;;;;;5047146;28;20409;-55
2023/09/08 13:57:07;;;;;;;5.95;5.53;;;;;;;;;;5044391;28;20686;-55
2023/09/08 13:59:33;;;;;;;7.32;6.63;;;;;;;;;;5040229;28;20422;-55
2023/09/08 14:02:01;;;;;;;6.93;6.05;;;;;;;;;;5042277;28;20169;-56
2023/09/08 14:04:27;;;;;;;6.05;5.55;;;;;;;;;;5046529;28;20185;-56
2023/09/08 14:06:53;;;;;;;6.95;5.95;;;;;;;;;;5042395;28;20268;-56
2023/09/08 14:09:19;;;;;;;7.70;5.60;;;;;;;;;;5048520;28;20201;-56
2023/09/08 14:11:45;;;;;;;6.05;5.45;;;;;;;;;;5043842;28;20177;-57
2023/09/08 14:14:12;;;;;;;5.95;5.50;;;;;;;;;;5048245;28;20185;-57
2023/09/08 14:16:38;;;;;;;5.82;5.22;;;;;;;;;;5029543;28;20201;-57
2023/09/08 14:19:05;;;;;;;5.88;5.45;;;;;;;;;;5046665;28;20193;-56
2023/09/08 14:21:32;;;;;;;7.15;5.65;;;;;;;;;;5041273;28;20675;-57
2023/09/08 14:23:58;;;;;;;9.18;5.70;;;;;;;;;;5044111;28;20528;-57
2023/09/08 14:26:25;;;;;;;10.05;5.50;;;;;;;;;;5044706;28;20188;-56
2023/09/08 14:28:53;;;;;;;8.75;6.07;;;;;;;;;;5046382;28;20607;-56
2023/09/08 14:31:19;;;;;;;5.85;5.40;;;;;;;;;;5046023;28;20546;-56
2023/09/08 14:33:45;;;;;;;5.68;5.18;;;;;;;;;;5046202;28;20192;-56
2023/09/08 14:36:11;;;;;;;6.00;5.05;;;;;;;;;;5045935;28;20615;-57
2023/09/08 14:38:38;;;;;;;8.25;5.40;;;;;;;;;;5047616;28;20183;-57
2023/09/08 14:41:04;;;;;;;5.88;5.22;;;;;;;;;;5043977;28;20173;-57
2023/09/08 14:43:31;;;;;;;6.57;5.63;;;;;;;;;;5047355;28;20174;-57
2023/09/08 14:45:57;;;;;;;5.68;4.75;;;;;;;;;;5039425;28;20177;-57